Terminal Aerodrome Forecast
Issued by NWS

Home | Current Version | Previous Version | Text Only | Print | Product List | Glossary On
Versions: 1 2 3 4 5 6 7 8 9 10 11 12 13 14 15 16 17 18 19 20 21 22 23 24 25
000
FTUS44 KMAF 040500
TAFFST
TAF
KFST 040520Z 0406/0506 26007KT P6SM BKN100
      TEMPO 0406/0410 -SHRA
     FM041000 VRB05KT P6SM OVC080
     FM041700 02014G22KT P6SM OVC015
     FM042000 04018G28KT 4SM -RA BR OVC010
     FM050000 05014G22KT 3SM -FZRA BR OVC008
     FM050400 05012G18KT 2SM -SN BR OVC006=

USA.gov is the U.S. government's official web portal to all federal, state and local government web resources and services.